Gilbert, Iowa
Current Conditions -  °F | °C
As of 2:08 PM on Monday 24 Nov 2014 (Local Time) from KAMW Reporting Station
Overcast Overcast  
Wind Chill: 11°   Ceiling: 2300
Heat Index: 25°   Visibility: 10mi
Dew Point: 16°   Wind: 21mph
Humidity: 69%   Direction: 300°WNW
Pressure: 29.66"   Gusts: 31mph
Location:  42.11°N, 93.65°W
Report Text: KAMW 242008Z AUTO 30018G27KT 10SM BKN023 OVC033 M04/M09 A2966 RMK AO2 PK WND 30028/2005 SNE1956 P0000 T10391089
Loading
Personal Weather Stations






























Interactive Weather Map New forecast layout! Learn more

10-Day Weather Forecast

Advertisements
Track Severe Weather on mobile